Amity, Arkansas
Current Conditions -  °F | °C
As of 3:53 PM on Saturday 25 Oct 2014 (Local Time) from KMWT Reporting Station
Clear Clear  
Wind Chill: 85°   Ceiling: Unl
Heat Index: 86°   Visibility: 10mi
Dew Point: 63°   Wind: 5mph
Humidity: 48%   Direction: NA
Pressure: 30.03"   Gusts: NA
Location:  34.26°N, 93.46°W
Report Text: KMWT 252053Z AUTO VRB04KT 10SM CLR 29/17 A3003 RMK AO2 SLP163 T02940172 56017
Loading
Personal Weather Stations






























Interactive Weather Map New forecast layout! Learn more

10-Day Weather Forecast

Advertisements
Track Severe Weather on mobile